Terminal Aerodrome Forecast
Issued by NWS

Home | Current Version | Previous Version | Text Only | Print | Product List | Glossary On
Versions: 1 2 3 4 5 6 7 8 9 10 11 12 13 14 15 16 17
000
FTUS43 KDTX 291851 AAA
TAFMBS
TAF AMD
KMBS 291851Z 2919/3018 05016G23KT 6SM -SHRA OVC025
     FM300300 05012KT 3SM -SHRA BR OVC015
     FM301500 05012KT 6SM -SHRA BKN012 OVC025=

USA.gov is the U.S. government's official web portal to all federal, state and local government web resources and services.